Time;durP1;ratioP1;P1;durP2;ratioP2;P2;SDS_P1;SDS_P2;PMS_P1;PMS_P2;Temp;Humidity;BMP_temperature;BMP_pressure;BME280_temperature;BME280_humidity;BME280_pressure;Samples;Min_cycle;Max_cycle;Signal;HPM_P1;HPM_P2
2021/12/28 00:01:13;;;;;;;;;0.00;0.00;;;;;9.73;94.76;98483.91;5015572;28;45582;-79
2021/12/28 00:03:42;;;;;;;;;0.50;0.50;;;;;9.72;94.61;98477.78;5023003;28;46147;-80
2021/12/28 00:06:09;;;;;;;;;0.50;0.00;;;;;9.73;94.94;98476.88;5036356;28;45335;-79
2021/12/28 00:08:35;;;;;;;;;0.00;0.00;;;;;9.76;94.86;98481.13;5036584;28;45424;-80
2021/12/28 00:11:02;;;;;;;;;0.00;0.00;;;;;9.75;95.03;98472.34;5035559;28;45613;-79
2021/12/28 00:13:29;;;;;;;;;0.00;0.00;;;;;9.78;94.51;98468.72;5023919;28;46207;-79
2021/12/28 00:18:22;;;;;;;;;2.00;0.00;;;;;9.76;95.02;98454.72;5024798;28;45491;-78
2021/12/28 00:20:52;;;;;;;;;0.00;0.00;;;;;9.80;94.81;98460.72;5023133;28;45506;-78
2021/12/28 00:23:38;;;;;;;;;0.00;0.00;;;;;9.79;95.12;98462.50;5014813;28;46153;-78
2021/12/28 00:26:06;;;;;;;;;0.00;0.00;;;;;9.78;94.43;98453.72;5014849;28;45426;-78
2021/12/28 00:28:31;;;;;;;;;0.00;0.00;;;;;9.80;94.57;98455.44;5036157;28;45478;-79
2021/12/28 00:30:59;;;;;;;;;0.00;0.00;;;;;9.81;94.93;98451.88;5015263;28;45421;-78
2021/12/28 00:33:25;;;;;;;;;0.00;0.00;;;;;9.76;94.58;98442.41;5024167;28;46202;-79
2021/12/28 00:35:51;;;;;;;;;1.50;0.00;;;;;9.78;94.38;98442.34;5015403;28;45394;-78
2021/12/28 00:38:21;;;;;;;;;1.00;0.00;;;;;9.72;94.71;98443.50;5030159;28;45355;-79
2021/12/28 00:40:48;;;;;;;;;0.00;0.00;;;;;9.73;94.72;98444.34;5037199;28;45347;-79
2021/12/28 00:43:14;;;;;;;;;0.00;0.00;;;;;9.75;94.76;98445.13;5025602;28;45334;-78
2021/12/28 00:45:40;;;;;;;;;0.00;0.00;;;;;9.71;94.67;98433.03;5015103;28;45516;-78
2021/12/28 00:48:08;;;;;;;;;0.00;0.00;;;;;9.71;95.29;98433.88;5017802;28;45429;-79
2021/12/28 00:50:33;;;;;;;;;0.00;0.00;;;;;9.69;95.02;98443.66;5035941;28;45538;-77
2021/12/28 00:52:59;;;;;;;;;0.00;0.00;;;;;9.70;95.34;98439.22;5035375;28;46015;-78
2021/12/28 00:55:27;;;;;;;;;0.00;0.00;;;;;9.65;94.75;98435.97;5036307;28;45477;-78
2021/12/28 00:57:53;;;;;;;;;0.50;0.50;;;;;9.69;95.58;98442.81;5034709;28;45426;-78
2021/12/28 01:00:25;;;;;;;;;0.00;0.00;;;;;9.64;96.19;98445.69;5036795;28;45324;-79
2021/12/28 01:02:52;;;;;;;;;0.00;0.00;;;;;9.72;95.73;98454.03;5034521;28;46208;-79
2021/12/28 01:05:19;;;;;;;;;0.00;0.00;;;;;9.76;96.04;98460.00;5036619;28;45380;-79
2021/12/28 01:07:45;;;;;;;;;0.00;0.00;;;;;9.82;96.23;98461.50;5029998;28;45351;-77
2021/12/28 01:10:14;;;;;;;;;0.00;0.00;;;;;9.82;95.77;98459.69;5019616;28;45366;-77
2021/12/28 01:12:40;;;;;;;;;0.00;0.00;;;;;9.77;95.98;98446.75;5037545;28;46118;-78
2021/12/28 01:15:08;;;;;;;;;1.00;1.00;;;;;9.83;96.35;98445.59;5056013;28;45530;-78
2021/12/28 01:17:35;;;;;;;;;0.00;0.00;;;;;9.88;96.23;98466.47;5051709;28;45457;-78
2021/12/28 01:20:01;;;;;;;;;0.00;0.00;;;;;9.89;96.30;98465.53;5028861;28;45280;-78
2021/12/28 01:22:26;;;;;;;;;0.00;0.00;;;;;9.90;96.42;98461.94;5040794;28;45338;-78
2021/12/28 01:24:51;;;;;;;;;0.00;0.00;;;;;9.94;96.07;98459.09;5028271;28;45375;-77
2021/12/28 01:27:17;;;;;;;;;0.00;0.00;;;;;9.98;96.16;98458.94;5017488;28;45539;-80
2021/12/28 01:29:42;;;;;;;;;0.00;0.00;;;;;10.00;95.89;98463.19;5013764;28;45493;-78
2021/12/28 01:32:08;;;;;;;;;0.75;0.00;;;;;10.05;96.24;98466.47;5024372;28;45642;-79
2021/12/28 01:34:35;;;;;;;;;0.00;0.00;;;;;10.06;95.60;98451.47;5042557;28;45413;-78
2021/12/28 01:37:00;;;;;;;;;0.00;0.00;;;;;10.06;95.38;98452.31;5056346;28;45388;-79
2021/12/28 01:39:25;;;;;;;;;0.00;0.00;;;;;10.11;95.22;98458.25;5040966;28;45407;-78
2021/12/28 01:41:51;;;;;;;;;0.00;0.00;;;;;10.11;95.01;98452.97;5035687;28;46522;-78
2021/12/28 01:44:16;;;;;;;;;0.00;0.00;;;;;10.15;95.30;98461.56;5038865;28;45387;-78
2021/12/28 01:46:42;;;;;;;;;0.00;0.00;;;;;10.17;94.93;98464.97;5036748;28;45368;-78
2021/12/28 01:49:09;;;;;;;;;0.00;0.00;;;;;10.16;94.55;98468.56;5035966;28;45461;-79
2021/12/28 01:51:35;;;;;;;;;0.00;0.00;;;;;10.14;94.58;98470.41;5035913;28;46455;-78
2021/12/28 01:54:03;;;;;;;;;0.00;0.00;;;;;10.17;94.53;98488.72;5033273;28;45401;-78
2021/12/28 01:56:36;;;;;;;;;0.00;0.00;;;;;10.22;94.71;98493.75;5022285;28;45465;-79
2021/12/28 01:59:03;;;;;;;;;0.00;0.00;;;;;10.24;94.72;98492.75;5014142;28;45404;-78
2021/12/28 02:01:29;;;;;;;;;0.00;0.00;;;;;10.24;94.61;98492.75;5021483;28;45508;-77
2021/12/28 02:03:55;;;;;;;;;0.00;0.00;;;;;10.27;94.36;98502.31;5030450;28;45426;-79
2021/12/28 02:06:24;;;;;;;;;0.00;0.00;;;;;10.30;94.48;98505.66;5040583;28;45409;-79
2021/12/28 02:08:54;;;;;;;;;0.00;0.00;;;;;10.34;94.19;98514.31;5037950;28;45610;-79
2021/12/28 02:11:20;;;;;;;;;0.00;0.00;;;;;10.37;94.60;98523.84;5039748;28;46019;-79
2021/12/28 02:13:47;;;;;;;;;0.00;0.00;;;;;10.39;94.12;98536.03;5037794;28;45491;-78
2021/12/28 02:16:12;;;;;;;;;0.00;0.00;;;;;10.44;93.71;98541.09;5036272;28;45356;-77
2021/12/28 02:18:40;;;;;;;;;0.00;0.00;;;;;10.45;93.64;98541.00;5038621;28;45469;-79
2021/12/28 02:21:07;;;;;;;;;1.00;0.00;;;;;10.46;93.33;98540.09;5032404;28;46364;-78
2021/12/28 02:23:33;;;;;;;;;0.00;0.00;;;;;10.49;92.98;98545.22;5016869;28;45457;-78
2021/12/28 02:25:58;;;;;;;;;0.00;0.00;;;;;10.49;92.73;98539.94;5022925;28;45517;-78
2021/12/28 02:28:24;;;;;;;;;0.00;0.00;;;;;10.52;92.17;98559.19;5035852;28;45432;-79
2021/12/28 02:30:53;;;;;;;;;0.00;0.00;;;;;10.52;92.15;98559.19;5035348;28;46007;-78
2021/12/28 02:33:23;;;;;;;;;0.00;0.00;;;;;10.52;92.00;98564.47;5026559;28;45441;-79
2021/12/28 02:35:49;;;;;;;;;0.00;0.00;;;;;10.48;91.63;98564.63;5016790;28;45387;-78
2021/12/28 02:38:14;;;;;;;;;0.00;0.00;;;;;10.52;91.31;98575.03;5017082;28;45453;-78
2021/12/28 02:40:42;;;;;;;;;0.00;0.00;;;;;10.51;91.42;98579.47;5016013;28;46509;-79
2021/12/28 02:43:10;;;;;;;;;0.00;0.00;;;;;10.50;91.42;98583.03;5018112;28;45535;-78
2021/12/28 02:45:38;;;;;;;;;0.00;0.00;;;;;10.47;91.53;98580.56;5016998;28;45413;-79
2021/12/28 02:48:06;;;;;;;;;0.00;0.00;;;;;10.42;91.56;98586.06;5035166;28;45606;-79
2021/12/28 02:50:42;;;;;;;;;0.00;0.00;;;;;10.45;91.38;98603.56;5036104;28;45435;-78
2021/12/28 02:53:08;;;;;;;;;0.00;0.00;;;;;10.44;91.10;98609.75;5015864;28;45407;-78
2021/12/28 02:55:34;;;;;;;;;0.00;0.00;;;;;10.43;91.38;98619.47;5016507;28;45375;-78
2021/12/28 02:58:04;;;;;;;;;0.00;0.00;;;;;10.41;91.06;98623.13;5027955;28;45541;-78
2021/12/28 03:00:38;;;;;;;;;0.00;0.00;;;;;10.39;91.07;98639.03;5037154;28;45336;-78
2021/12/28 03:03:24;;;;;;;;;0.00;0.00;;;;;10.38;91.03;98633.84;5017607;28;45391;-78
2021/12/28 03:05:52;;;;;;;;;0.00;0.00;;;;;10.38;90.73;98647.03;5036995;28;45547;-79
2021/12/28 03:08:20;;;;;;;;;0.00;0.00;;;;;10.36;91.03;98639.19;5037009;28;45637;-78
2021/12/28 03:10:47;;;;;;;;;0.00;0.00;;;;;10.38;90.84;98644.41;5039097;28;46014;-78
2021/12/28 03:13:15;;;;;;;;;0.00;0.00;;;;;10.34;90.83;98635.78;5042231;28;45473;-79
2021/12/28 03:15:41;;;;;;;;;0.50;0.00;;;;;10.36;90.89;98648.91;5036197;28;45410;-79
2021/12/28 03:18:06;;;;;;;;;0.00;0.00;;;;;10.34;90.64;98651.63;5019348;28;45394;-78
2021/12/28 03:20:32;;;;;;;;;0.00;0.00;;;;;10.34;90.89;98645.47;5036499;28;45426;-78
2021/12/28 03:22:57;;;;;;;;;0.00;0.00;;;;;10.34;90.43;98650.75;5036591;28;45315;-78
2021/12/28 03:25:23;;;;;;;;;0.00;0.00;;;;;10.33;89.95;98655.19;5035613;28;45390;-79
2021/12/28 03:27:48;;;;;;;;;0.75;0.00;;;;;10.35;90.38;98663.03;5034927;28;45515;-78
2021/12/28 03:30:16;;;;;;;;;0.00;0.00;;;;;10.33;90.57;98663.13;5035899;28;46375;-78
2021/12/28 03:32:43;;;;;;;;;0.00;0.00;;;;;10.35;90.46;98663.03;5035576;28;45359;-77
2021/12/28 03:35:10;;;;;;;;;0.00;0.00;;;;;10.34;90.23;98666.59;5048429;28;45431;-78
2021/12/28 03:37:38;;;;;;;;;1.00;0.00;;;;;10.37;90.10;98666.44;5055311;28;45482;-78
2021/12/28 03:40:07;;;;;;;;;0.00;0.00;;;;;10.39;90.75;98675.16;5054711;28;46361;-77
2021/12/28 03:42:33;;;;;;;;;1.00;0.00;;;;;10.42;90.50;98682.94;5056083;28;45410;-80
2021/12/28 03:44:58;;;;;;;;;0.00;0.00;;;;;10.42;90.34;98686.44;5058923;28;45416;-79
2021/12/28 03:47:24;;;;;;;;;2.00;0.00;;;;;10.43;90.13;98690.78;5031662;28;45532;-78
2021/12/28 03:49:49;;;;;;;;;0.00;0.00;;;;;10.44;89.87;98676.63;5020749;28;46675;-78
2021/12/28 03:52:15;;;;;;;;;0.00;0.00;;;;;10.46;90.08;98685.34;5041465;28;45385;-78
2021/12/28 03:54:40;;;;;;;;;0.00;0.00;;;;;10.43;89.37;98679.34;5055273;28;45342;-78
2021/12/28 03:57:06;;;;;;;;;0.00;0.00;;;;;10.47;89.41;98689.69;5029548;28;45473;-78
2021/12/28 03:59:31;;;;;;;;;0.00;0.00;;;;;10.52;89.61;98685.97;5016691;28;45989;-77
2021/12/28 04:01:56;;;;;;;;;0.00;0.00;;;;;10.53;88.78;98683.25;5017918;28;45555;-79
2021/12/28 04:04:23;;;;;;;;;0.00;0.00;;;;;10.55;88.97;98706.94;5023907;28;45284;-77
2021/12/28 04:06:48;;;;;;;;;2.00;0.00;;;;;10.53;88.54;98688.53;5023402;28;45390;-77
2021/12/28 04:09:20;;;;;;;;;0.50;0.00;;;;;10.53;88.17;98690.34;5016802;28;45433;-78
2021/12/28 04:11:45;;;;;;;;;0.00;0.00;;;;;10.54;88.46;98690.25;5020947;28;45467;-77
2021/12/28 04:14:11;;;;;;;;;1.75;0.00;;;;;10.56;88.52;98700.75;5037878;28;45505;-79
2021/12/28 04:16:37;;;;;;;;;0.00;0.00;;;;;10.57;88.83;98705.09;5041913;28;45493;-78
2021/12/28 04:19:04;;;;;;;;;0.00;0.00;;;;;10.55;88.67;98699.91;5015005;28;46226;-77
2021/12/28 04:21:31;;;;;;;;;0.00;0.00;;;;;10.60;88.75;98704.94;5021984;28;45561;-78
2021/12/28 04:23:56;;;;;;;;;0.00;0.00;;;;;10.58;88.48;98699.75;5034860;28;45552;-78
2021/12/28 04:26:22;;;;;;;;;0.00;0.00;;;;;10.59;88.70;98698.78;5040068;28;45417;-77
2021/12/28 04:28:48;;;;;;;;;0.00;0.00;;;;;10.63;88.49;98710.09;5037441;28;46169;-79
2021/12/28 04:31:13;;;;;;;;;1.50;0.00;;;;;10.62;88.29;98708.38;5029845;28;45362;-79
2021/12/28 04:33:40;;;;;;;;;0.00;0.00;;;;;10.64;88.39;98714.41;5015102;28;45537;-78
2021/12/28 04:36:07;;;;;;;;;0.00;0.00;;;;;10.63;88.32;98726.78;5013625;28;45618;-78
2021/12/28 04:38:32;;;;;;;;;0.00;0.00;;;;;10.66;88.13;98720.50;5030014;28;46487;-77
2021/12/28 04:40:58;;;;;;;;;0.50;0.00;;;;;10.66;88.25;98715.22;5034668;28;45580;-77
2021/12/28 04:43:23;;;;;;;;;0.00;0.00;;;;;10.69;88.06;98724.75;5035925;28;45487;-78
2021/12/28 04:45:49;;;;;;;;;1.00;0.00;;;;;10.69;87.79;98717.72;5037399;28;45448;-78
2021/12/28 04:48:14;;;;;;;;;0.00;0.00;;;;;10.72;86.81;98721.97;5036917;28;46340;-78
2021/12/28 04:50:42;;;;;;;;;1.00;0.00;;;;;10.70;86.72;98708.81;5034080;28;45487;-79
2021/12/28 04:53:10;;;;;;;;;0.00;0.00;;;;;10.69;86.22;98709.78;5020699;28;45545;-79
2021/12/28 04:55:41;;;;;;;;;0.00;0.00;;;;;10.77;86.42;98726.09;5049816;28;45637;-79
2021/12/28 04:58:07;;;;;;;;;1.00;0.00;;;;;10.76;86.22;98716.44;5034486;28;46558;-79
2021/12/28 05:00:32;;;;;;;;;0.00;0.00;;;;;10.76;85.85;98716.44;5034702;28;45427;-78
2021/12/28 05:02:57;;;;;;;;;0.00;0.00;;;;;10.78;85.76;98727.81;5030745;28;45610;-80
2021/12/28 05:05:23;;;;;;;;;0.00;0.00;;;;;10.77;85.54;98734.00;5053808;28;45666;-79
2021/12/28 05:07:48;;;;;;;;;0.00;0.00;;;;;10.80;85.30;98740.94;5019286;28;46853;-80
2021/12/28 05:10:14;;;;;;;;;0.00;0.00;;;;;10.79;85.65;98748.00;5020293;28;45397;-80
2021/12/28 05:12:39;;;;;;;;;0.00;0.00;;;;;10.79;85.31;98745.34;5034140;28;45544;-78
2021/12/28 05:15:06;;;;;;;;;0.00;0.00;;;;;10.82;85.30;98747.84;5047907;28;45327;-78
2021/12/28 05:17:32;;;;;;;;;0.00;0.00;;;;;10.83;85.08;98746.91;5038884;28;45480;-79
2021/12/28 05:19:57;;;;;;;;;0.25;0.00;;;;;10.81;84.80;98754.09;5048132;28;45420;-79
2021/12/28 05:22:22;;;;;;;;;0.00;0.00;;;;;10.82;84.91;98762.84;5045499;28;45407;-78
2021/12/28 05:24:48;;;;;;;;;0.00;0.00;;;;;10.86;84.44;98774.16;5052216;28;45487;-79
2021/12/28 05:27:13;;;;;;;;;0.00;0.00;;;;;10.85;84.60;98768.00;5032867;28;45505;-80
2021/12/28 05:29:38;;;;;;;;;0.00;0.00;;;;;10.89;84.60;98774.00;5033479;28;45397;-77
2021/12/28 05:32:04;;;;;;;;;0.25;0.25;;;;;10.90;84.08;98788.91;5030923;28;45894;-78
2021/12/28 05:34:30;;;;;;;;;1.50;0.00;;;;;10.88;83.97;98793.41;5038935;28;45591;-80
2021/12/28 05:36:55;;;;;;;;;0.00;0.00;;;;;10.91;84.09;98790.63;5034088;28;46159;-80
2021/12/28 05:39:20;;;;;;;;;0.00;0.00;;;;;10.90;83.88;98791.53;5043496;28;45373;-79
2021/12/28 05:41:46;;;;;;;;;0.00;0.00;;;;;10.92;83.83;98787.06;5037431;28;45373;-78
2021/12/28 05:44:11;;;;;;;;;0.00;0.00;;;;;10.94;83.05;98786.03;5036633;28;45374;-78
2021/12/28 05:46:36;;;;;;;;;1.00;0.00;;;;;10.94;83.19;98803.69;5037704;28;46293;-79
2021/12/28 05:49:03;;;;;;;;;0.00;0.00;;;;;10.96;83.09;98799.16;5041057;28;45385;-79
2021/12/28 05:51:28;;;;;;;;;1.00;0.00;;;;;10.98;82.64;98811.38;5031725;28;45548;-79
2021/12/28 05:53:53;;;;;;;;;0.00;0.00;;;;;10.97;81.72;98811.47;5017677;28;45492;-79
2021/12/28 05:56:19;;;;;;;;;0.00;0.00;;;;;10.99;82.00;98812.22;5033689;28;46446;-77
2021/12/28 05:58:44;;;;;;;;;0.00;0.00;;;;;10.97;81.71;98804.38;5047970;28;45694;-78
2021/12/28 06:01:09;;;;;;;;;0.00;0.00;;;;;11.01;81.47;98807.75;5037081;28;45737;-77
2021/12/28 06:03:35;;;;;;;;;0.00;0.00;;;;;11.02;80.84;98812.09;5031858;28;45484;-78
2021/12/28 06:06:01;;;;;;;;;0.00;0.00;;;;;11.04;81.05;98818.16;5020107;28;45468;-79
2021/12/28 06:08:26;;;;;;;;;0.00;0.00;;;;;11.05;81.16;98821.66;5056868;28;45616;-77
2021/12/28 06:10:51;;;;;;;;;0.25;0.00;;;;;11.05;81.27;98822.50;5049869;28;45572;-79
2021/12/28 06:13:17;;;;;;;;;1.00;0.00;;;;;11.09;80.88;98832.00;5035402;28;45692;-77
2021/12/28 06:15:42;;;;;;;;;0.00;0.00;;;;;11.09;80.77;98842.56;5035105;28;45397;-78
2021/12/28 06:18:08;;;;;;;;;0.00;0.00;;;;;11.09;80.95;98839.09;5039511;28;45303;-80
2021/12/28 06:20:33;;;;;;;;;1.00;0.00;;;;;11.09;80.58;98850.50;5020278;28;45413;-79
2021/12/28 06:22:59;;;;;;;;;4.25;0.00;;;;;11.07;80.66;98847.09;5056467;28;45458;-78
2021/12/28 06:25:24;;;;;;;;;0.00;0.00;;;;;11.10;80.06;98862.81;5056257;28;46244;-78
2021/12/28 06:27:50;;;;;;;;;1.75;0.00;;;;;11.10;79.99;98860.16;5072768;28;45313;-79
2021/12/28 06:30:15;;;;;;;;;1.50;0.50;;;;;11.09;80.04;98866.38;5056941;28;45361;-78
2021/12/28 06:32:41;;;;;;;;;2.00;1.00;;;;;11.07;79.95;98862.97;5027174;28;45593;-79
2021/12/28 06:35:08;;;;;;;;;0.00;0.00;;;;;11.08;80.06;98875.22;5052394;28;45472;-78
2021/12/28 06:37:33;;;;;;;;;0.50;0.00;;;;;11.02;79.69;98873.75;5058350;28;45398;-77
2021/12/28 06:39:58;;;;;;;;;1.00;0.00;;;;;11.02;79.79;98896.69;5058891;28;45543;-78
2021/12/28 06:42:24;;;;;;;;;0.00;0.00;;;;;10.98;79.44;98895.13;5059424;28;45356;-77
2021/12/28 06:44:52;;;;;;;;;0.00;0.00;;;;;10.97;79.23;98914.56;5065785;28;45689;-79
2021/12/28 06:47:17;;;;;;;;;0.00;0.00;;;;;10.94;78.76;98910.25;5043019;28;45472;-78
2021/12/28 06:49:44;;;;;;;;;0.00;0.00;;;;;10.91;78.75;98902.47;5025167;28;45419;-78
2021/12/28 06:52:10;;;;;;;;;0.00;0.00;;;;;10.89;79.00;98906.16;5025321;28;45482;-77
2021/12/28 06:54:37;;;;;;;;;1.00;0.00;;;;;10.89;79.23;98911.44;5035840;28;45612;-78
2021/12/28 06:57:08;;;;;;;;;0.00;0.00;;;;;10.86;78.82;98908.94;5035372;28;45515;-78
2021/12/28 06:59:37;;;;;;;;;0.00;0.00;;;;;10.86;79.02;98907.16;5036674;28;45455;-79
2021/12/28 07:02:04;;;;;;;;;0.00;0.00;;;;;10.82;78.82;98895.84;5027989;28;45396;-78
2021/12/28 07:04:29;;;;;;;;;0.00;0.00;;;;;10.84;79.13;98903.69;5038393;28;45444;-79
2021/12/28 07:06:54;;;;;;;;;0.00;0.00;;;;;10.80;79.10;98908.28;5040027;28;45403;-78
2021/12/28 07:09:20;;;;;;;;;0.00;0.00;;;;;10.81;78.81;98912.66;5037052;28;45409;-78
2021/12/28 07:11:45;;;;;;;;;0.00;0.00;;;;;10.81;78.98;98902.09;5034589;28;45547;-78
2021/12/28 07:14:10;;;;;;;;;0.00;0.00;;;;;10.83;78.72;98923.16;5036014;28;46544;-78
2021/12/28 07:16:36;;;;;;;;;0.00;0.00;;;;;10.80;78.80;98910.09;5035541;28;45346;-79
2021/12/28 07:19:01;;;;;;;;;0.00;0.00;;;;;10.85;78.88;98916.00;5036139;28;45462;-80
2021/12/28 07:21:26;;;;;;;;;0.25;0.00;;;;;10.81;78.72;98904.72;5033516;28;45335;-78
2021/12/28 07:23:52;;;;;;;;;0.00;0.00;;;;;10.83;78.46;98902.84;5019838;28;45513;-79
2021/12/28 07:26:17;;;;;;;;;0.00;0.00;;;;;10.91;78.87;98920.16;5014003;28;45458;-78
2021/12/28 07:28:42;;;;;;;;;0.00;0.00;;;;;10.91;79.11;98925.44;5016744;28;45704;-79
2021/12/28 07:31:08;;;;;;;;;1.00;0.00;;;;;10.89;79.12;98922.00;5015930;28;45340;-78
2021/12/28 07:33:33;;;;;;;;;0.75;0.00;;;;;10.89;78.95;98916.72;5024905;28;47864;-79
2021/12/28 07:35:58;;;;;;;;;0.00;0.00;;;;;10.90;79.11;98924.59;5039382;28;45613;-79
2021/12/28 07:38:24;;;;;;;;;0.00;0.00;;;;;10.90;78.75;98913.13;5036514;28;45341;-79
2021/12/28 07:40:49;;;;;;;;;1.00;0.00;;;;;10.89;78.68;98922.84;5051552;28;45362;-79
2021/12/28 07:43:15;;;;;;;;;1.00;0.00;;;;;10.91;79.16;98925.44;5056684;28;45465;-78
2021/12/28 07:45:40;;;;;;;;;1.00;0.00;;;;;10.93;78.55;98944.69;5054927;28;45530;-79
2021/12/28 07:48:06;;;;;;;;;0.00;0.00;;;;;10.94;78.46;98941.16;5054340;28;45419;-79
2021/12/28 07:50:32;;;;;;;;;0.00;0.00;;;;;10.95;78.55;98949.00;5016282;28;45231;-78
2021/12/28 07:52:57;;;;;;;;;0.00;0.00;;;;;11.00;78.48;98956.72;5037941;28;45509;-78
2021/12/28 07:55:23;;;;;;;;;0.00;0.00;;;;;10.97;78.88;98962.16;5037114;28;45334;-78
2021/12/28 07:57:48;;;;;;;;;0.00;0.00;;;;;11.03;79.18;98975.06;5035754;28;45741;-78
2021/12/28 08:00:17;;;;;;;;;0.00;0.00;;;;;11.01;78.97;98969.84;5037346;28;45542;-79
2021/12/28 08:02:43;;;;;;;;;1.50;0.00;;;;;11.02;79.00;98963.66;5055308;28;45982;-78
2021/12/28 08:05:10;;;;;;;;;0.50;0.00;;;;;11.04;79.08;98958.28;5054738;28;45376;-78
2021/12/28 08:07:35;;;;;;;;;0.50;0.00;;;;;11.09;80.07;98982.72;5034316;28;45435;-79
2021/12/28 08:10:01;;;;;;;;;2.50;0.00;;;;;11.09;79.98;98985.34;5015074;28;45382;-79
2021/12/28 08:12:26;;;;;;;;;3.50;0.00;;;;;11.08;80.83;98981.00;5042546;28;47394;-78
2021/12/28 08:14:51;;;;;;;;;1.00;0.75;;;;;11.07;81.77;98981.06;5050711;28;45406;-79
2021/12/28 08:17:17;;;;;;;;;0.00;0.00;;;;;11.08;81.54;98975.69;5048462;28;45413;-77
2021/12/28 08:19:42;;;;;;;;;0.00;0.00;;;;;11.08;82.04;98993.34;5041156;28;45708;-79
2021/12/28 08:22:08;;;;;;;;;0.00;0.00;;;;;11.03;83.12;99004.16;5035418;28;45603;-76
2021/12/28 08:24:34;;;;;;;;;0.00;0.00;;;;;11.00;84.84;99012.22;5051911;28;45374;-76
2021/12/28 08:27:00;;;;;;;;;0.00;0.00;;;;;11.00;85.35;99022.81;5034554;28;45452;-76
2021/12/28 08:29:25;;;;;;;;;1.00;0.00;;;;;10.98;85.89;99019.38;5034954;28;45669;-76
2021/12/28 08:31:51;;;;;;;;;1.00;1.00;;;;;10.95;85.90;99012.44;5037368;28;46225;-76
2021/12/28 08:34:16;;;;;;;;;1.00;0.00;;;;;10.94;86.41;99016.00;5031169;28;45511;-75
2021/12/28 08:36:41;;;;;;;;;5.00;0.00;;;;;10.96;86.94;99029.16;5034798;28;45414;-76
2021/12/28 08:39:07;;;;;;;;;1.00;0.00;;;;;10.93;87.14;99019.59;5050165;28;45364;-76
2021/12/28 08:41:32;;;;;;;;;0.50;0.00;;;;;10.97;87.01;99041.44;5033867;28;45385;-75
2021/12/28 08:43:58;;;;;;;;;0.00;0.00;;;;;10.98;87.14;99053.75;5034191;28;45483;-77
2021/12/28 08:46:23;;;;;;;;;0.75;0.00;;;;;10.97;87.23;99046.75;5032314;28;45428;-77
2021/12/28 08:48:48;;;;;;;;;0.00;0.00;;;;;10.99;86.36;99050.16;5027515;28;45425;-77
2021/12/28 08:51:15;;;;;;;;;4.50;0.00;;;;;11.02;87.19;99060.59;5018703;28;46033;-77
2021/12/28 08:53:41;;;;;;;;;0.00;0.00;;;;;11.02;86.56;99066.75;5031156;28;45310;-77
2021/12/28 08:56:06;;;;;;;;;0.00;0.00;;;;;11.04;86.34;99064.03;5037750;28;45414;-76
2021/12/28 08:58:32;;;;;;;;;1.00;0.00;;;;;11.07;86.25;99057.72;5055439;28;45977;-77
2021/12/28 09:00:57;;;;;;;;;0.25;0.25;;;;;11.10;86.28;99061.13;5054498;28;45920;-76
2021/12/28 09:03:23;;;;;;;;;1.00;0.00;;;;;11.08;85.32;99049.72;5055211;28;45348;-76
2021/12/28 09:05:48;;;;;;;;;0.00;0.00;;;;;11.11;85.02;99054.88;5053549;28;45814;-77
2021/12/28 09:08:17;;;;;;;;;0.50;0.50;;;;;11.13;84.93;99054.81;5033954;28;45604;-75
2021/12/28 09:10:42;;;;;;;;;0.00;0.00;;;;;11.17;84.50;99059.91;5033849;28;46104;-77
2021/12/28 09:13:09;;;;;;;;;0.00;0.00;;;;;11.17;83.04;99062.56;5036732;28;45467;-76
2021/12/28 09:15:36;;;;;;;;;0.00;0.00;;;;;11.17;81.59;99059.03;5036816;28;45414;-77
2021/12/28 09:18:02;;;;;;;;;0.00;0.00;;;;;11.17;80.79;99075.78;5020684;28;45565;-78
2021/12/28 09:20:27;;;;;;;;;1.25;0.00;;;;;11.19;81.15;99065.13;5020394;28;46621;-77
2021/12/28 09:22:56;;;;;;;;;0.00;0.00;;;;;11.20;79.90;99070.34;5019598;28;45407;-75
2021/12/28 09:25:22;;;;;;;;;0.50;0.50;;;;;11.23;78.64;99068.47;5026814;28;45382;-77
2021/12/28 09:27:47;;;;;;;;;3.00;0.00;;;;;11.18;77.54;99050.19;5031235;28;45457;-77
2021/12/28 09:30:13;;;;;;;;;0.00;0.00;;;;;11.24;76.75;99072.84;5039015;28;45545;-75
2021/12/28 09:32:39;;;;;;;;;0.00;0.00;;;;;11.23;76.19;99076.41;5036938;28;45375;-77
2021/12/28 09:35:06;;;;;;;;;2.00;0.00;;;;;11.20;75.19;99069.47;5044894;28;45306;-77
2021/12/28 09:37:33;;;;;;;;;0.00;0.00;;;;;11.24;74.51;99070.19;5036290;28;45418;-77
2021/12/28 09:39:59;;;;;;;;;0.50;0.00;;;;;11.27;73.99;99075.34;5037135;28;45812;-76
2021/12/28 09:42:25;;;;;;;;;0.00;0.00;;;;;11.28;72.86;99069.09;5036939;28;45564;-76
2021/12/28 09:44:51;;;;;;;;;0.00;0.00;;;;;11.28;72.07;99077.03;5037755;28;45473;-77
2021/12/28 09:47:18;;;;;;;;;2.50;1.00;;;;;11.29;71.59;99089.34;5023905;28;45532;-79
2021/12/28 09:49:44;;;;;;;;;0.75;0.00;;;;;11.28;70.51;99079.69;5031033;28;46272;-78
2021/12/28 09:52:12;;;;;;;;;5.00;0.00;;;;;11.32;69.71;99089.19;5031898;28;45529;-77
2021/12/28 09:54:38;;;;;;;;;0.50;0.50;;;;;11.34;69.95;99087.34;5017692;28;45583;-77
2021/12/28 09:57:04;;;;;;;;;0.00;0.00;;;;;11.32;67.91;99089.19;5018368;28;45393;-77
2021/12/28 09:59:31;;;;;;;;;0.75;0.00;;;;;11.34;68.67;99100.56;5028460;28;45350;-76
2021/12/28 10:01:59;;;;;;;;;4.25;0.25;;;;;11.36;67.76;99102.22;5033367;28;45486;-77
2021/12/28 10:04:25;;;;;;;;;4.00;1.00;;;;;11.35;68.34;99107.56;5023244;28;45484;-77
2021/12/28 10:06:50;;;;;;;;;0.25;0.00;;;;;11.34;67.19;99103.22;5057063;28;45555;-76
2021/12/28 10:09:19;;;;;;;;;0.75;0.50;;;;;11.35;67.13;99105.78;5045714;28;45317;-76
2021/12/28 10:11:52;;;;;;;;;4.00;1.00;;;;;11.37;66.15;99130.41;5039287;28;45515;-76
2021/12/28 10:14:22;;;;;;;;;3.50;1.00;;;;;11.38;66.27;99120.66;5037132;28;45426;-77
2021/12/28 10:16:53;;;;;;;;;0.00;0.00;;;;;11.41;66.12;99112.59;5045512;28;45424;-77
2021/12/28 10:19:34;;;;;;;;;1.00;0.00;;;;;11.39;65.90;99103.88;5037749;28;45436;-76
2021/12/28 10:22:26;;;;;;;;;4.00;2.00;;;;;11.42;65.38;99122.25;5027567;28;45473;-77
2021/12/28 10:25:00;;;;;;;;;2.00;0.00;;;;;11.44;65.94;99143.34;5035102;28;45424;-76
2021/12/28 10:27:29;;;;;;;;;2.50;1.00;;;;;11.41;65.67;99130.25;5037868;28;45374;-77
2021/12/28 10:30:03;;;;;;;;;1.00;0.00;;;;;11.42;65.21;99129.31;5037357;28;46145;-77
2021/12/28 10:32:29;;;;;;;;;0.00;0.00;;;;;11.45;65.13;99131.81;5035840;28;45335;-75
2021/12/28 10:34:58;;;;;;;;;2.00;1.00;;;;;11.48;65.38;99139.63;5026811;28;45365;-75
2021/12/28 10:37:29;;;;;;;;;3.50;2.00;;;;;11.49;65.44;99128.09;5035719;28;45365;-77
2021/12/28 10:39:58;;;;;;;;;2.00;0.00;;;;;11.51;65.10;99142.97;5036428;28;46450;-76
2021/12/28 10:42:36;;;;;;;;;0.00;0.00;;;;;11.53;65.19;99130.53;5035781;28;45553;-76
2021/12/28 10:45:01;;;;;;;;;0.00;0.00;;;;;11.54;65.06;99148.13;5036806;28;45397;-76
2021/12/28 10:47:29;;;;;;;;;4.00;1.00;;;;;11.58;65.21;99147.97;5051072;28;45532;-77
2021/12/28 10:49:55;;;;;;;;;1.25;0.00;;;;;11.56;64.91;99135.66;5057055;28;46097;-77
2021/12/28 10:52:29;;;;;;;;;2.50;0.00;;;;;11.64;65.47;99137.09;5041550;28;45477;-77
2021/12/28 10:55:17;;;;;;;;;0.75;0.75;;;;;11.66;65.39;99135.25;5037019;28;45394;-78
2021/12/28 10:57:43;;;;;;;;;1.25;0.00;;;;;11.68;65.07;99128.09;5020686;28;45320;-76
2021/12/28 11:00:31;;;;;;;;;0.00;0.00;;;;;11.74;65.03;99144.53;5017683;28;45325;-77
2021/12/28 11:03:12;;;;;;;;;4.75;1.00;;;;;11.76;64.39;99155.06;5016651;28;45408;-77
2021/12/28 11:05:37;;;;;;;;;1.00;0.25;;;;;11.79;64.77;99154.91;5028223;28;45344;-78
2021/12/28 11:08:08;;;;;;;;;0.00;0.00;;;;;11.77;63.96;99143.53;5035980;28;45531;-76
2021/12/28 11:10:36;;;;;;;;;1.25;0.00;;;;;11.80;64.50;99153.13;5051625;28;45506;-77
2021/12/28 11:13:03;;;;;;;;;1.50;0.75;;;;;11.83;64.49;99161.78;5031233;28;45430;-77
2021/12/28 11:15:32;;;;;;;;;4.00;0.75;;;;;11.89;64.38;99158.84;5026170;28;45499;-78
2021/12/28 11:17:57;;;;;;;;;0.25;0.00;;;;;11.91;64.28;99153.47;5016474;28;45553;-79
2021/12/28 11:20:30;;;;;;;;;1.00;1.00;;;;;12.04;63.47;99161.69;5034015;28;45675;-77
2021/12/28 11:23:33;;;;;;;;;4.75;1.25;;;;;12.11;63.41;99154.34;5017168;28;45378;-78
2021/12/28 11:26:11;;;;;;;;;0.50;0.50;;;;;12.12;63.44;99166.66;4974011;28;45533;-77
2021/12/28 11:28:40;;;;;;;;;0.00;0.00;;;;;12.19;63.36;99176.88;4976488;28;45695;-77
2021/12/28 11:31:12;;;;;;;;;1.00;0.00;;;;;12.39;62.68;99191.78;4980161;28;45455;-77
2021/12/28 11:33:42;;;;;;;;;1.00;0.00;;;;;12.81;61.15;99189.69;4992895;28;45680;-78
2021/12/28 11:36:09;;;;;;;;;0.00;0.00;;;;;13.64;58.23;99179.19;4976896;28;45480;-78